Terminal Aerodrome Forecast
Issued by NWS

Home | Current Version | Previous Version | Graphics & Text | Print | Product List | Glossary On
Versions: 1 2 3 4 5 6 7 8 9 10 11
000
FTUS43 KICT 251120
TAFSLN
TAF
KSLN 251120Z 2512/2612 18013KT P6SM OVC200
     FM251500 18015G23KT P6SM OVC200
     FM251800 18022G31KT P6SM BKN200
     FM260000 18012KT P6SM SCT200
     FM260700 27009KT P6SM SCT200=

USA.gov is the U.S. government's official web portal to all federal, state and local government web resources and services.